Hampshire, Tennessee
Current Conditions -  °F | °C
As of 3:55 PM on Monday 20 Oct 2014 (Local Time) from KMRC Reporting Station
Broken Clouds Broken Clouds  
Wind Chill: 64°   Ceiling: 10000
Heat Index: 64°   Visibility: 10mi
Dew Point: 52°   Wind: 5mph
Humidity: 64%   Direction: 250°WSW
Pressure: 30"   Gusts: NA
Location:  35.6°N, 87.29°W
Report Text: KMRC 202055Z AUTO 25004KT 10SM BKN100 18/11 A3000 RMK
Loading
Personal Weather Stations






























Interactive Weather Map
Tropical Storm Tracking
New forecast layout! Learn more

10-Day Weather Forecast

Advertisements
Track Severe Weather on mobile